Lynn Township, Michigan
Current Conditions -  °F | °C
As of 11:17 AM on Thursday 27 Nov 2014 (Local Time) from KPHN Reporting Station
Overcast Overcast  
Wind Chill: 25°   Ceiling: 2000
Heat Index: 32°   Visibility: 10mi
Dew Point: 25°   Wind: 8mph
Humidity: 75%   Direction: 300°WNW
Pressure: 30.13"   Gusts: NA
Location:  43.127°N, 82.8328°W
Report Text: KPHN 271617Z AUTO 30007KT 10SM OVC020 M00/M04 A3013 RMK AO2
Loading
Personal Weather Stations






























Interactive Weather Map New forecast layout! Learn more

10-Day Weather Forecast

Advertisements
Track Severe Weather on mobile